sensor_id;sensor_type;location;lat;lon;timestamp;temperature;humidity
21622;DHT22;10973;46.706;12.340;2023-05-29T00:02:27;11.90;99.90
21622;DHT22;10973;46.706;12.340;2023-05-29T00:04:55;11.80;99.90
21622;DHT22;10973;46.706;12.340;2023-05-29T00:07:22;11.80;99.90
21622;DHT22;10973;46.706;12.340;2023-05-29T00:09:50;11.80;99.90
21622;DHT22;10973;46.706;12.340;2023-05-29T00:12:17;11.70;99.90
21622;DHT22;10973;46.706;12.340;2023-05-29T00:14:44;11.60;99.90
21622;DHT22;10973;46.706;12.340;2023-05-29T00:17:12;11.60;99.90
21622;DHT22;10973;46.706;12.340;2023-05-29T00:19:39;11.70;99.90
21622;DHT22;10973;46.706;12.340;2023-05-29T00:22:07;11.70;99.90
21622;DHT22;10973;46.706;12.340;2023-05-29T00:24:34;11.70;99.90
21622;DHT22;10973;46.706;12.340;2023-05-29T00:27:04;11.70;99.90
21622;DHT22;10973;46.706;12.340;2023-05-29T00:29:32;11.70;99.90
21622;DHT22;10973;46.706;12.340;2023-05-29T00:31:59;11.80;99.90
21622;DHT22;10973;46.706;12.340;2023-05-29T00:34:27;11.80;99.90
21622;DHT22;10973;46.706;12.340;2023-05-29T00:36:54;11.70;99.90
21622;DHT22;10973;46.706;12.340;2023-05-29T00:39:22;11.70;99.90
21622;DHT22;10973;46.706;12.340;2023-05-29T00:41:49;11.70;99.90
21622;DHT22;10973;46.706;12.340;2023-05-29T00:44:18;11.70;99.90
21622;DHT22;10973;46.706;12.340;2023-05-29T00:46:51;11.80;99.90
21622;DHT22;10973;46.706;12.340;2023-05-29T00:49:21;11.80;99.90
21622;DHT22;10973;46.706;12.340;2023-05-29T00:51:51;11.80;99.90
21622;DHT22;10973;46.706;12.340;2023-05-29T00:54:26;11.80;99.90
21622;DHT22;10973;46.706;12.340;2023-05-29T00:56:57;11.80;99.90
21622;DHT22;10973;46.706;12.340;2023-05-29T00:59:27;11.80;99.90
21622;DHT22;10973;46.706;12.340;2023-05-29T01:01:57;11.70;99.90
21622;DHT22;10973;46.706;12.340;2023-05-29T01:04:26;11.70;99.90
21622;DHT22;10973;46.706;12.340;2023-05-29T01:06:54;11.80;99.90
21622;DHT22;10973;46.706;12.340;2023-05-29T01:09:21;11.80;99.90
21622;DHT22;10973;46.706;12.340;2023-05-29T01:24:03;11.60;99.90
21622;DHT22;10973;46.706;12.340;2023-05-29T01:27:08;11.60;99.90
21622;DHT22;10973;46.706;12.340;2023-05-29T01:29:38;11.50;99.90
21622;DHT22;10973;46.706;12.340;2023-05-29T01:32:08;11.60;99.90
21622;DHT22;10973;46.706;12.340;2023-05-29T01:34:37;11.50;99.90
21622;DHT22;10973;46.706;12.340;2023-05-29T01:37:04;11.50;99.90
21622;DHT22;10973;46.706;12.340;2023-05-29T01:39:32;11.50;99.90
21622;DHT22;10973;46.706;12.340;2023-05-29T01:42:02;11.50;99.90
21622;DHT22;10973;46.706;12.340;2023-05-29T01:44:30;11.50;99.90
21622;DHT22;10973;46.706;12.340;2023-05-29T01:46:58;11.50;99.90
21622;DHT22;10973;46.706;12.340;2023-05-29T01:49:26;11.40;99.90
21622;DHT22;10973;46.706;12.340;2023-05-29T01:51:55;11.30;99.90
21622;DHT22;10973;46.706;12.340;2023-05-29T01:54:23;11.30;99.90
21622;DHT22;10973;46.706;12.340;2023-05-29T01:56:51;11.20;99.90
21622;DHT22;10973;46.706;12.340;2023-05-29T01:59:19;11.20;99.90
21622;DHT22;10973;46.706;12.340;2023-05-29T02:01:48;11.20;99.90
21622;DHT22;10973;46.706;12.340;2023-05-29T02:04:15;11.10;99.90
21622;DHT22;10973;46.706;12.340;2023-05-29T02:06:43;11.10;99.90
21622;DHT22;10973;46.706;12.340;2023-05-29T02:09:11;11.00;99.90
21622;DHT22;10973;46.706;12.340;2023-05-29T02:11:38;10.90;99.90
21622;DHT22;10973;46.706;12.340;2023-05-29T02:14:06;10.90;99.90
21622;DHT22;10973;46.706;12.340;2023-05-29T02:16:33;10.90;99.90
21622;DHT22;10973;46.706;12.340;2023-05-29T02:19:01;10.80;99.90
21622;DHT22;10973;46.706;12.340;2023-05-29T02:21:29;10.80;99.90
21622;DHT22;10973;46.706;12.340;2023-05-29T02:23:56;10.70;99.90
21622;DHT22;10973;46.706;12.340;2023-05-29T02:26:23;10.60;99.90
21622;DHT22;10973;46.706;12.340;2023-05-29T02:28:51;10.70;99.90
21622;DHT22;10973;46.706;12.340;2023-05-29T02:31:18;10.60;99.90
21622;DHT22;10973;46.706;12.340;2023-05-29T02:33:45;10.50;99.90
21622;DHT22;10973;46.706;12.340;2023-05-29T02:36:13;10.50;99.90
21622;DHT22;10973;46.706;12.340;2023-05-29T02:38:40;10.60;99.90
21622;DHT22;10973;46.706;12.340;2023-05-29T02:41:07;10.60;99.90
21622;DHT22;10973;46.706;12.340;2023-05-29T02:43:35;10.60;99.90
21622;DHT22;10973;46.706;12.340;2023-05-29T02:46:02;10.60;99.90
21622;DHT22;10973;46.706;12.340;2023-05-29T02:48:29;10.60;99.90
21622;DHT22;10973;46.706;12.340;2023-05-29T02:50:57;10.70;99.90
21622;DHT22;10973;46.706;12.340;2023-05-29T02:53:24;10.70;99.90
21622;DHT22;10973;46.706;12.340;2023-05-29T02:55:52;10.60;99.90
21622;DHT22;10973;46.706;12.340;2023-05-29T02:58:19;10.60;99.90
21622;DHT22;10973;46.706;12.340;2023-05-29T03:00:46;10.60;99.90
21622;DHT22;10973;46.706;12.340;2023-05-29T03:03:14;10.60;99.90
21622;DHT22;10973;46.706;12.340;2023-05-29T03:05:41;10.50;99.90
21622;DHT22;10973;46.706;12.340;2023-05-29T03:08:09;10.50;99.90
21622;DHT22;10973;46.706;12.340;2023-05-29T03:10:36;10.40;99.90
21622;DHT22;10973;46.706;12.340;2023-05-29T03:13:03;10.40;99.90
21622;DHT22;10973;46.706;12.340;2023-05-29T03:15:31;10.40;99.90
21622;DHT22;10973;46.706;12.340;2023-05-29T03:17:58;10.40;99.90
21622;DHT22;10973;46.706;12.340;2023-05-29T03:20:25;10.40;99.90
21622;DHT22;10973;46.706;12.340;2023-05-29T03:22:53;10.40;99.90
21622;DHT22;10973;46.706;12.340;2023-05-29T03:25:21;10.40;99.90
21622;DHT22;10973;46.706;12.340;2023-05-29T03:27:49;10.40;99.90
21622;DHT22;10973;46.706;12.340;2023-05-29T03:30:16;10.40;99.90
21622;DHT22;10973;46.706;12.340;2023-05-29T03:32:44;10.40;99.90
21622;DHT22;10973;46.706;12.340;2023-05-29T03:35:11;10.30;99.90
21622;DHT22;10973;46.706;12.340;2023-05-29T03:37:39;10.40;99.90
21622;DHT22;10973;46.706;12.340;2023-05-29T03:40:07;10.30;99.90
21622;DHT22;10973;46.706;12.340;2023-05-29T03:42:35;10.40;99.90
21622;DHT22;10973;46.706;12.340;2023-05-29T03:45:02;10.30;99.90
21622;DHT22;10973;46.706;12.340;2023-05-29T03:47:30;10.30;99.90
21622;DHT22;10973;46.706;12.340;2023-05-29T03:49:57;10.30;99.90
21622;DHT22;10973;46.706;12.340;2023-05-29T03:52:24;10.20;99.90
21622;DHT22;10973;46.706;12.340;2023-05-29T03:54:52;10.20;99.90
21622;DHT22;10973;46.706;12.340;2023-05-29T03:57:19;10.20;99.90
21622;DHT22;10973;46.706;12.340;2023-05-29T03:59:47;10.20;99.90
21622;DHT22;10973;46.706;12.340;2023-05-29T04:02:18;10.20;99.90
21622;DHT22;10973;46.706;12.340;2023-05-29T04:04:46;10.20;99.90
21622;DHT22;10973;46.706;12.340;2023-05-29T04:07:13;10.10;99.90
21622;DHT22;10973;46.706;12.340;2023-05-29T04:09:41;10.10;99.90
21622;DHT22;10973;46.706;12.340;2023-05-29T04:12:08;10.10;99.90
21622;DHT22;10973;46.706;12.340;2023-05-29T04:14:36;10.10;99.90
21622;DHT22;10973;46.706;12.340;2023-05-29T04:17:03;10.20;99.90
21622;DHT22;10973;46.706;12.340;2023-05-29T04:19:31;10.20;99.90
21622;DHT22;10973;46.706;12.340;2023-05-29T04:21:58;10.10;99.90
21622;DHT22;10973;46.706;12.340;2023-05-29T04:24:25;10.10;99.90
21622;DHT22;10973;46.706;12.340;2023-05-29T04:26:53;10.10;99.90
21622;DHT22;10973;46.706;12.340;2023-05-29T04:29:20;10.10;99.90
21622;DHT22;10973;46.706;12.340;2023-05-29T04:31:48;10.20;99.90
21622;DHT22;10973;46.706;12.340;2023-05-29T04:34:15;10.20;99.90
21622;DHT22;10973;46.706;12.340;2023-05-29T04:36:42;10.20;99.90
21622;DHT22;10973;46.706;12.340;2023-05-29T04:39:10;10.20;99.90
21622;DHT22;10973;46.706;12.340;2023-05-29T04:41:39;10.20;99.90
21622;DHT22;10973;46.706;12.340;2023-05-29T04:44:07;10.20;99.90
21622;DHT22;10973;46.706;12.340;2023-05-29T04:46:34;10.20;99.90
21622;DHT22;10973;46.706;12.340;2023-05-29T04:49:02;10.30;99.90
21622;DHT22;10973;46.706;12.340;2023-05-29T04:51:30;10.30;99.90
21622;DHT22;10973;46.706;12.340;2023-05-29T04:53:57;10.30;99.90
21622;DHT22;10973;46.706;12.340;2023-05-29T04:56:24;10.30;99.90
21622;DHT22;10973;46.706;12.340;2023-05-29T04:58:52;10.30;99.90
21622;DHT22;10973;46.706;12.340;2023-05-29T05:01:19;10.30;99.90
21622;DHT22;10973;46.706;12.340;2023-05-29T05:03:47;10.30;99.90
21622;DHT22;10973;46.706;12.340;2023-05-29T05:06:14;10.20;99.90
21622;DHT22;10973;46.706;12.340;2023-05-29T05:08:41;10.20;99.90
21622;DHT22;10973;46.706;12.340;2023-05-29T05:11:09;10.20;99.90
21622;DHT22;10973;46.706;12.340;2023-05-29T05:13:36;10.10;99.90
21622;DHT22;10973;46.706;12.340;2023-05-29T05:16:04;10.20;99.90
21622;DHT22;10973;46.706;12.340;2023-05-29T05:18:31;10.20;99.90
21622;DHT22;10973;46.706;12.340;2023-05-29T05:20:58;10.20;99.90
21622;DHT22;10973;46.706;12.340;2023-05-29T05:23:27;10.20;99.90
21622;DHT22;10973;46.706;12.340;2023-05-29T05:25:54;10.30;99.90
21622;DHT22;10973;46.706;12.340;2023-05-29T05:28:21;10.40;99.90
21622;DHT22;10973;46.706;12.340;2023-05-29T05:30:49;10.50;99.90
21622;DHT22;10973;46.706;12.340;2023-05-29T05:33:16;10.60;99.90
21622;DHT22;10973;46.706;12.340;2023-05-29T05:35:44;10.60;99.90
21622;DHT22;10973;46.706;12.340;2023-05-29T05:38:11;10.60;99.90
21622;DHT22;10973;46.706;12.340;2023-05-29T05:40:38;10.70;99.90
21622;DHT22;10973;46.706;12.340;2023-05-29T05:43:06;10.80;99.90
21622;DHT22;10973;46.706;12.340;2023-05-29T05:45:33;10.90;99.90
21622;DHT22;10973;46.706;12.340;2023-05-29T05:48:01;10.90;99.90
21622;DHT22;10973;46.706;12.340;2023-05-29T05:50:28;10.90;99.90
21622;DHT22;10973;46.706;12.340;2023-05-29T05:52:56;11.00;99.90
21622;DHT22;10973;46.706;12.340;2023-05-29T05:55:23;11.10;99.90
21622;DHT22;10973;46.706;12.340;2023-05-29T05:57:51;11.10;99.90
21622;DHT22;10973;46.706;12.340;2023-05-29T06:00:18;11.10;99.90
21622;DHT22;10973;46.706;12.340;2023-05-29T06:02:46;11.30;99.90
21622;DHT22;10973;46.706;12.340;2023-05-29T06:05:14;11.40;99.90
21622;DHT22;10973;46.706;12.340;2023-05-29T06:07:41;11.40;99.90
21622;DHT22;10973;46.706;12.340;2023-05-29T06:10:08;11.50;99.90
21622;DHT22;10973;46.706;12.340;2023-05-29T06:12:36;11.50;99.90
21622;DHT22;10973;46.706;12.340;2023-05-29T06:15:04;11.50;99.90
21622;DHT22;10973;46.706;12.340;2023-05-29T06:17:32;11.60;99.90
21622;DHT22;10973;46.706;12.340;2023-05-29T06:20:00;11.60;99.90
21622;DHT22;10973;46.706;12.340;2023-05-29T06:22:27;11.70;99.90
21622;DHT22;10973;46.706;12.340;2023-05-29T06:24:54;11.90;99.90
21622;DHT22;10973;46.706;12.340;2023-05-29T06:27:22;12.10;99.90
21622;DHT22;10973;46.706;12.340;2023-05-29T06:29:49;12.20;99.90
21622;DHT22;10973;46.706;12.340;2023-05-29T06:32:16;12.30;99.90
21622;DHT22;10973;46.706;12.340;2023-05-29T06:34:44;12.30;99.90
21622;DHT22;10973;46.706;12.340;2023-05-29T06:37:11;12.40;99.90
21622;DHT22;10973;46.706;12.340;2023-05-29T06:39:39;12.40;99.90
21622;DHT22;10973;46.706;12.340;2023-05-29T06:42:06;12.40;99.90
21622;DHT22;10973;46.706;12.340;2023-05-29T06:44:33;12.50;99.90
21622;DHT22;10973;46.706;12.340;2023-05-29T06:47:01;12.50;99.90
21622;DHT22;10973;46.706;12.340;2023-05-29T06:49:28;12.50;99.90
21622;DHT22;10973;46.706;12.340;2023-05-29T06:51:55;12.60;99.90
21622;DHT22;10973;46.706;12.340;2023-05-29T06:54:23;12.60;99.90
21622;DHT22;10973;46.706;12.340;2023-05-29T06:56:50;12.70;99.90
21622;DHT22;10973;46.706;12.340;2023-05-29T06:59:35;12.80;99.90
21622;DHT22;10973;46.706;12.340;2023-05-29T07:02:02;12.80;99.90
21622;DHT22;10973;46.706;12.340;2023-05-29T07:04:30;12.80;99.90
21622;DHT22;10973;46.706;12.340;2023-05-29T07:06:57;12.80;99.90
21622;DHT22;10973;46.706;12.340;2023-05-29T07:09:27;12.80;99.90
21622;DHT22;10973;46.706;12.340;2023-05-29T07:11:54;12.90;99.90
21622;DHT22;10973;46.706;12.340;2023-05-29T07:14:22;12.90;99.90
21622;DHT22;10973;46.706;12.340;2023-05-29T07:16:49;13.00;99.90
21622;DHT22;10973;46.706;12.340;2023-05-29T07:19:17;13.10;99.90
21622;DHT22;10973;46.706;12.340;2023-05-29T07:21:48;13.10;99.90
21622;DHT22;10973;46.706;12.340;2023-05-29T07:24:15;13.10;99.90
21622;DHT22;10973;46.706;12.340;2023-05-29T07:26:43;13.20;99.90
21622;DHT22;10973;46.706;12.340;2023-05-29T07:29:10;13.10;99.90
21622;DHT22;10973;46.706;12.340;2023-05-29T07:31:38;13.20;99.90
21622;DHT22;10973;46.706;12.340;2023-05-29T07:34:05;13.20;99.90
21622;DHT22;10973;46.706;12.340;2023-05-29T07:36:33;13.10;99.90
21622;DHT22;10973;46.706;12.340;2023-05-29T07:39:00;13.10;99.90
21622;DHT22;10973;46.706;12.340;2023-05-29T07:41:28;13.10;99.90
21622;DHT22;10973;46.706;12.340;2023-05-29T07:43:55;13.10;99.90
21622;DHT22;10973;46.706;12.340;2023-05-29T07:46:23;13.10;99.90
21622;DHT22;10973;46.706;12.340;2023-05-29T07:48:50;13.10;99.90
21622;DHT22;10973;46.706;12.340;2023-05-29T07:51:18;13.10;99.90
21622;DHT22;10973;46.706;12.340;2023-05-29T07:53:45;13.10;99.90
21622;DHT22;10973;46.706;12.340;2023-05-29T07:56:12;13.20;99.90
21622;DHT22;10973;46.706;12.340;2023-05-29T07:58:40;13.20;99.90
21622;DHT22;10973;46.706;12.340;2023-05-29T08:01:07;13.30;99.90
21622;DHT22;10973;46.706;12.340;2023-05-29T08:03:35;13.40;99.90
21622;DHT22;10973;46.706;12.340;2023-05-29T08:06:02;13.50;99.90
21622;DHT22;10973;46.706;12.340;2023-05-29T08:08:30;13.60;99.90
21622;DHT22;10973;46.706;12.340;2023-05-29T08:10:57;13.70;99.90
21622;DHT22;10973;46.706;12.340;2023-05-29T08:13:25;13.80;99.90
21622;DHT22;10973;46.706;12.340;2023-05-29T08:15:53;13.80;99.90
21622;DHT22;10973;46.706;12.340;2023-05-29T08:18:25;14.00;99.90
21622;DHT22;10973;46.706;12.340;2023-05-29T08:20:53;14.10;99.90
21622;DHT22;10973;46.706;12.340;2023-05-29T08:23:21;14.10;99.90
21622;DHT22;10973;46.706;12.340;2023-05-29T08:25:48;14.10;99.90
21622;DHT22;10973;46.706;12.340;2023-05-29T08:28:16;14.20;99.90
21622;DHT22;10973;46.706;12.340;2023-05-29T08:30:43;14.20;99.90
21622;DHT22;10973;46.706;12.340;2023-05-29T08:33:11;14.30;99.90
21622;DHT22;10973;46.706;12.340;2023-05-29T08:35:39;14.30;99.90
21622;DHT22;10973;46.706;12.340;2023-05-29T08:38:06;14.40;99.90
21622;DHT22;10973;46.706;12.340;2023-05-29T08:40:34;14.40;99.90
21622;DHT22;10973;46.706;12.340;2023-05-29T08:43:16;14.50;99.90
21622;DHT22;10973;46.706;12.340;2023-05-29T08:45:53;14.60;99.90
21622;DHT22;10973;46.706;12.340;2023-05-29T08:48:24;14.70;99.90
21622;DHT22;10973;46.706;12.340;2023-05-29T08:50:55;14.70;99.90
21622;DHT22;10973;46.706;12.340;2023-05-29T08:53:25;14.80;99.90
21622;DHT22;10973;46.706;12.340;2023-05-29T08:55:53;14.90;99.90
21622;DHT22;10973;46.706;12.340;2023-05-29T08:58:21;15.00;99.90
21622;DHT22;10973;46.706;12.340;2023-05-29T09:00:52;15.00;99.90
21622;DHT22;10973;46.706;12.340;2023-05-29T09:03:20;15.10;99.90
21622;DHT22;10973;46.706;12.340;2023-05-29T09:05:48;15.10;99.90
21622;DHT22;10973;46.706;12.340;2023-05-29T09:08:16;15.30;99.90
21622;DHT22;10973;46.706;12.340;2023-05-29T09:10:45;15.40;99.90
21622;DHT22;10973;46.706;12.340;2023-05-29T09:13:13;15.30;99.90
21622;DHT22;10973;46.706;12.340;2023-05-29T09:15:41;15.30;99.90
21622;DHT22;10973;46.706;12.340;2023-05-29T09:18:10;15.30;99.90
21622;DHT22;10973;46.706;12.340;2023-05-29T09:20:38;15.30;99.90
21622;DHT22;10973;46.706;12.340;2023-05-29T09:23:08;15.30;99.90
21622;DHT22;10973;46.706;12.340;2023-05-29T09:25:41;15.30;99.90
21622;DHT22;10973;46.706;12.340;2023-05-29T09:28:10;15.30;99.90
21622;DHT22;10973;46.706;12.340;2023-05-29T09:30:40;15.40;99.90
21622;DHT22;10973;46.706;12.340;2023-05-29T09:33:13;15.50;99.90
21622;DHT22;10973;46.706;12.340;2023-05-29T09:35:47;15.60;99.90
21622;DHT22;10973;46.706;12.340;2023-05-29T09:38:19;15.60;99.90
21622;DHT22;10973;46.706;12.340;2023-05-29T09:41:06;15.60;99.90
21622;DHT22;10973;46.706;12.340;2023-05-29T09:43:38;15.60;99.90
21622;DHT22;10973;46.706;12.340;2023-05-29T09:46:06;15.60;99.90
21622;DHT22;10973;46.706;12.340;2023-05-29T09:48:35;15.60;99.90
21622;DHT22;10973;46.706;12.340;2023-05-29T09:51:03;15.60;99.90
21622;DHT22;10973;46.706;12.340;2023-05-29T09:53:30;15.70;99.90
21622;DHT22;10973;46.706;12.340;2023-05-29T09:55:57;15.80;99.90
21622;DHT22;10973;46.706;12.340;2023-05-29T09:58:25;16.00;99.90
21622;DHT22;10973;46.706;12.340;2023-05-29T10:00:53;16.10;99.90
21622;DHT22;10973;46.706;12.340;2023-05-29T10:03:20;16.20;99.90
21622;DHT22;10973;46.706;12.340;2023-05-29T10:05:55;16.40;99.90
21622;DHT22;10973;46.706;12.340;2023-05-29T10:08:25;16.60;99.90
21622;DHT22;10973;46.706;12.340;2023-05-29T10:11:01;16.70;99.90
21622;DHT22;10973;46.706;12.340;2023-05-29T10:13:36;16.70;99.90
21622;DHT22;10973;46.706;12.340;2023-05-29T10:16:08;16.70;99.90
21622;DHT22;10973;46.706;12.340;2023-05-29T10:18:42;16.70;99.90
21622;DHT22;10973;46.706;12.340;2023-05-29T10:21:12;16.70;99.90
21622;DHT22;10973;46.706;12.340;2023-05-29T10:23:43;16.80;99.90
21622;DHT22;10973;46.706;12.340;2023-05-29T10:26:22;16.90;99.90
21622;DHT22;10973;46.706;12.340;2023-05-29T10:29:13;16.90;99.90
21622;DHT22;10973;46.706;12.340;2023-05-29T10:40:13;16.80;99.90
21622;DHT22;10973;46.706;12.340;2023-05-29T10:50:41;16.60;99.90
21622;DHT22;10973;46.706;12.340;2023-05-29T10:53:10;16.50;99.90
21622;DHT22;10973;46.706;12.340;2023-05-29T10:55:41;16.50;99.90
21622;DHT22;10973;46.706;12.340;2023-05-29T10:58:12;16.40;99.90
21622;DHT22;10973;46.706;12.340;2023-05-29T11:00:46;16.40;99.90
21622;DHT22;10973;46.706;12.340;2023-05-29T11:03:21;16.40;99.90
21622;DHT22;10973;46.706;12.340;2023-05-29T11:06:01;16.40;99.90
21622;DHT22;10973;46.706;12.340;2023-05-29T11:08:46;16.40;99.90
21622;DHT22;10973;46.706;12.340;2023-05-29T11:11:46;16.30;99.90
21622;DHT22;10973;46.706;12.340;2023-05-29T11:14:48;16.40;99.90
21622;DHT22;10973;46.706;12.340;2023-05-29T11:20:17;16.50;99.90
21622;DHT22;10973;46.706;12.340;2023-05-29T11:23:03;16.50;99.90
21622;DHT22;10973;46.706;12.340;2023-05-29T11:25:34;16.70;99.90
21622;DHT22;10973;46.706;12.340;2023-05-29T11:28:04;16.80;99.90
21622;DHT22;10973;46.706;12.340;2023-05-29T11:30:47;17.00;99.90
21622;DHT22;10973;46.706;12.340;2023-05-29T11:33:26;17.20;99.90
21622;DHT22;10973;46.706;12.340;2023-05-29T11:36:03;17.30;99.90
21622;DHT22;10973;46.706;12.340;2023-05-29T11:38:31;17.40;99.90
21622;DHT22;10973;46.706;12.340;2023-05-29T11:41:01;17.50;99.90
21622;DHT22;10973;46.706;12.340;2023-05-29T11:43:29;17.50;99.90
21622;DHT22;10973;46.706;12.340;2023-05-29T11:45:56;17.70;99.90
21622;DHT22;10973;46.706;12.340;2023-05-29T11:48:24;18.00;99.90
21622;DHT22;10973;46.706;12.340;2023-05-29T11:50:52;18.10;99.90
21622;DHT22;10973;46.706;12.340;2023-05-29T11:53:20;18.10;99.90
21622;DHT22;10973;46.706;12.340;2023-05-29T11:55:47;18.10;99.90
21622;DHT22;10973;46.706;12.340;2023-05-29T11:58:15;18.00;99.90
21622;DHT22;10973;46.706;12.340;2023-05-29T12:00:42;18.00;99.90
21622;DHT22;10973;46.706;12.340;2023-05-29T12:03:11;18.10;99.90
21622;DHT22;10973;46.706;12.340;2023-05-29T12:05:47;18.10;99.90
21622;DHT22;10973;46.706;12.340;2023-05-29T12:08:15;18.20;99.90
21622;DHT22;10973;46.706;12.340;2023-05-29T12:10:49;18.40;99.90
21622;DHT22;10973;46.706;12.340;2023-05-29T12:13:21;19.00;99.90
21622;DHT22;10973;46.706;12.340;2023-05-29T12:15:51;19.50;99.90
21622;DHT22;10973;46.706;12.340;2023-05-29T12:18:21;19.70;99.90
21622;DHT22;10973;46.706;12.340;2023-05-29T12:20:48;19.70;99.90
21622;DHT22;10973;46.706;12.340;2023-05-29T12:23:18;19.40;99.90
21622;DHT22;10973;46.706;12.340;2023-05-29T12:25:46;19.60;99.90
21622;DHT22;10973;46.706;12.340;2023-05-29T12:28:17;19.40;99.90
21622;DHT22;10973;46.706;12.340;2023-05-29T12:30:47;19.20;99.90
21622;DHT22;10973;46.706;12.340;2023-05-29T12:33:34;19.10;99.90
21622;DHT22;10973;46.706;12.340;2023-05-29T12:38:41;19.30;99.90
21622;DHT22;10973;46.706;12.340;2023-05-29T12:41:24;19.20;99.90
21622;DHT22;10973;46.706;12.340;2023-05-29T12:44:02;19.30;99.90
21622;DHT22;10973;46.706;12.340;2023-05-29T12:46:39;19.10;99.60
21622;DHT22;10973;46.706;12.340;2023-05-29T12:49:17;19.00;99.90
21622;DHT22;10973;46.706;12.340;2023-05-29T12:51:45;19.00;99.90
21622;DHT22;10973;46.706;12.340;2023-05-29T12:54:16;18.90;99.90
21622;DHT22;10973;46.706;12.340;2023-05-29T12:56:44;18.90;99.90
21622;DHT22;10973;46.706;12.340;2023-05-29T12:59:12;18.90;99.90
21622;DHT22;10973;46.706;12.340;2023-05-29T13:01:40;18.90;99.90
21622;DHT22;10973;46.706;12.340;2023-05-29T13:04:07;18.90;99.90
21622;DHT22;10973;46.706;12.340;2023-05-29T13:06:36;18.90;99.90
21622;DHT22;10973;46.706;12.340;2023-05-29T13:09:04;18.90;99.80
21622;DHT22;10973;46.706;12.340;2023-05-29T13:11:32;18.90;99.20
21622;DHT22;10973;46.706;12.340;2023-05-29T13:14:01;19.10;99.90
21622;DHT22;10973;46.706;12.340;2023-05-29T13:16:29;19.10;99.70
21622;DHT22;10973;46.706;12.340;2023-05-29T13:18:56;19.00;97.30
21622;DHT22;10973;46.706;12.340;2023-05-29T13:21:24;19.20;97.60
21622;DHT22;10973;46.706;12.340;2023-05-29T13:23:51;19.20;96.80
21622;DHT22;10973;46.706;12.340;2023-05-29T13:26:18;19.30;96.10
21622;DHT22;10973;46.706;12.340;2023-05-29T13:28:46;19.50;97.50
21622;DHT22;10973;46.706;12.340;2023-05-29T13:31:13;20.10;97.40
21622;DHT22;10973;46.706;12.340;2023-05-29T13:33:40;20.60;97.20
21622;DHT22;10973;46.706;12.340;2023-05-29T13:36:08;20.90;95.70
21622;DHT22;10973;46.706;12.340;2023-05-29T13:38:35;21.30;96.90
21622;DHT22;10973;46.706;12.340;2023-05-29T13:41:03;21.80;97.80
21622;DHT22;10973;46.706;12.340;2023-05-29T13:43:30;21.80;96.10
21622;DHT22;10973;46.706;12.340;2023-05-29T13:46:10;21.40;95.90
21622;DHT22;10973;46.706;12.340;2023-05-29T13:48:38;21.10;94.60
21622;DHT22;10973;46.706;12.340;2023-05-29T13:51:06;20.90;95.60
21622;DHT22;10973;46.706;12.340;2023-05-29T13:53:33;20.70;95.30
21622;DHT22;10973;46.706;12.340;2023-05-29T13:56:00;20.50;96.60
21622;DHT22;10973;46.706;12.340;2023-05-29T13:58:28;20.30;97.40
21622;DHT22;10973;46.706;12.340;2023-05-29T14:00:57;20.20;97.20
21622;DHT22;10973;46.706;12.340;2023-05-29T14:03:24;20.10;96.80
21622;DHT22;10973;46.706;12.340;2023-05-29T14:05:52;20.30;96.60
21622;DHT22;10973;46.706;12.340;2023-05-29T14:08:20;21.00;96.90
21622;DHT22;10973;46.706;12.340;2023-05-29T14:10:50;21.40;96.50
21622;DHT22;10973;46.706;12.340;2023-05-29T14:13:18;21.80;96.00
21622;DHT22;10973;46.706;12.340;2023-05-29T14:15:45;21.60;94.20
21622;DHT22;10973;46.706;12.340;2023-05-29T14:18:13;21.60;95.60
21622;DHT22;10973;46.706;12.340;2023-05-29T14:20:40;21.40;95.30
21622;DHT22;10973;46.706;12.340;2023-05-29T14:23:07;21.20;95.40
21622;DHT22;10973;46.706;12.340;2023-05-29T14:25:35;21.30;96.20
21622;DHT22;10973;46.706;12.340;2023-05-29T14:28:02;21.60;96.00
21622;DHT22;10973;46.706;12.340;2023-05-29T14:30:30;22.00;95.50
21622;DHT22;10973;46.706;12.340;2023-05-29T14:32:57;22.20;95.10
21622;DHT22;10973;46.706;12.340;2023-05-29T14:35:25;22.20;94.90
21622;DHT22;10973;46.706;12.340;2023-05-29T14:37:52;21.60;94.40
21622;DHT22;10973;46.706;12.340;2023-05-29T14:40:20;21.10;94.90
21622;DHT22;10973;46.706;12.340;2023-05-29T14:42:47;20.40;97.00
21622;DHT22;10973;46.706;12.340;2023-05-29T14:45:16;19.90;98.10
21622;DHT22;10973;46.706;12.340;2023-05-29T14:47:44;19.40;98.50
21622;DHT22;10973;46.706;12.340;2023-05-29T14:50:11;19.30;99.10
21622;DHT22;10973;46.706;12.340;2023-05-29T14:52:39;19.00;99.40
21622;DHT22;10973;46.706;12.340;2023-05-29T14:55:06;18.80;99.50
21622;DHT22;10973;46.706;12.340;2023-05-29T14:57:34;18.80;99.20
21622;DHT22;10973;46.706;12.340;2023-05-29T15:00:04;18.80;99.20
21622;DHT22;10973;46.706;12.340;2023-05-29T15:02:33;18.70;99.70
21622;DHT22;10973;46.706;12.340;2023-05-29T15:05:01;18.70;99.90
21622;DHT22;10973;46.706;12.340;2023-05-29T15:07:28;18.70;99.90
21622;DHT22;10973;46.706;12.340;2023-05-29T15:09:55;18.70;99.90
21622;DHT22;10973;46.706;12.340;2023-05-29T15:12:23;18.70;99.70
21622;DHT22;10973;46.706;12.340;2023-05-29T15:14:50;18.80;99.90
21622;DHT22;10973;46.706;12.340;2023-05-29T15:17:19;19.60;99.00
21622;DHT22;10973;46.706;12.340;2023-05-29T15:19:46;20.20;98.50
21622;DHT22;10973;46.706;12.340;2023-05-29T15:22:14;20.10;98.60
21622;DHT22;10973;46.706;12.340;2023-05-29T15:24:41;19.90;98.90
21622;DHT22;10973;46.706;12.340;2023-05-29T15:27:08;19.80;99.10
21622;DHT22;10973;46.706;12.340;2023-05-29T15:29:36;20.30;99.20
21622;DHT22;10973;46.706;12.340;2023-05-29T15:32:04;20.80;98.80
21622;DHT22;10973;46.706;12.340;2023-05-29T15:34:31;21.30;98.80
21622;DHT22;10973;46.706;12.340;2023-05-29T15:36:58;21.60;98.00
21622;DHT22;10973;46.706;12.340;2023-05-29T15:39:26;22.00;96.60
21622;DHT22;10973;46.706;12.340;2023-05-29T15:41:53;22.10;96.00
21622;DHT22;10973;46.706;12.340;2023-05-29T15:44:21;22.00;94.70
21622;DHT22;10973;46.706;12.340;2023-05-29T15:46:48;21.70;94.00
21622;DHT22;10973;46.706;12.340;2023-05-29T15:49:15;21.80;94.30
21622;DHT22;10973;46.706;12.340;2023-05-29T15:51:43;21.90;93.80
21622;DHT22;10973;46.706;12.340;2023-05-29T15:54:10;22.10;93.50
21622;DHT22;10973;46.706;12.340;2023-05-29T15:56:38;22.10;92.90
21622;DHT22;10973;46.706;12.340;2023-05-29T15:59:05;22.10;93.20
21622;DHT22;10973;46.706;12.340;2023-05-29T16:01:33;22.00;92.40